Cape Texel — V7RC4 — position and weather

sailwx.info

Track history (hours):
 
Tides and Currents Weather Stations Pressure Air Temp Water Temp Dewpoint Dewpoint Depression Visibility Wind Speed Wind Dir Waves Ship Positions

Cape Texel

Last reported at 2018-May-27 20:44 UTC. Time now 2018-Jun-18 17:38 UTC.
Position N 20°46' E 067°48'.
Warning: this ship's position is 21 days out of date.

Length 228 m; draft 12.5 m.

Type: Tanker. MMSI: 538090383.

Date/timePositionNaut miles runAvg speedWind from/ knotsBaromVisibWave heightAir tempDewpointWater temp
2018-May-27 20:44N 20°46' E 067°48'311.9
2018-May-27 20:30N 20°44' E 067°47'711.9
2018-May-27 19:53N 20°37' E 067°45'511.8
2018-May-27 19:30N 20°33' E 067°43'711.5
2018-May-27 18:52N 20°26' E 067°41'611.5
2018-May-27 18:22N 20°20' E 067°39'411.4
2018-May-27 18:00N 20°16' E 067°38'711.4
2018-May-27 17:22N 20°09' E 067°35'411.4
2018-May-27 17:00N 20°05' E 067°34'  
Track history (hours):
 
Tides and Currents Weather Stations Pressure Air Temp Water Temp Dewpoint Dewpoint Depression Visibility Wind Speed Wind Dir Waves Ship Positions

Cape Texel

Last reported at 2018-May-27 20:44 UTC. Time now 2018-Jun-18 17:38 UTC.
Position N 20°46' E 067°48'.
Warning: this ship's position is 21 days out of date.

Length 228 m; draft 12.5 m.

Type: Tanker. MMSI: 538090383.

Date/timePositionNaut miles runAvg speedWind from/ knotsBaromVisibWave heightAir tempDewpointWater temp
2018-May-27 20:44N 20°46' E 067°48'311.9
2018-May-27 20:30N 20°44' E 067°47'711.9
2018-May-27 19:53N 20°37' E 067°45'511.8
2018-May-27 19:30N 20°33' E 067°43'711.5
2018-May-27 18:52N 20°26' E 067°41'611.5
2018-May-27 18:22N 20°20' E 067°39'411.4
2018-May-27 18:00N 20°16' E 067°38'711.4
2018-May-27 17:22N 20°09' E 067°35'411.4
2018-May-27 17:00N 20°05' E 067°34'  

Dump ship's entire track history